Wild Lotus — 3FUT8 — position and weather

sailwx.info

Track history (hours):
 
Tides and Currents Weather Stations Pressure Air Temp Water Temp Dewpoint Dewpoint Depression Visibility Wind Speed Wind Dir Waves Ship Positions

Wild Lotus

Last reported at 2018-Feb-25 00:29 UTC. Time now 2018-Feb-25 02:18 UTC.
Position N 09°27' W 079°56'.

; draft 5.6 m.

Type: Ship. MMSI: 352408000.

Date/timePositionNaut miles runAvg speedWind from/ knotsBaromVisibWave heightAir tempDewpointWater temp
2018-Feb-25 00:29N 09°27' W 079°56'0 0.1
2018-Feb-24 23:59N 09°27' W 079°56'0 0.0
2018-Feb-24 22:53N 09°27' W 079°56'0 0.0
2018-Feb-24 22:17N 09°27' W 079°56'0 0.0
2018-Feb-24 21:20N 09°27' W 079°56'0 0.0
2018-Feb-24 20:56N 09°27' W 079°56'0 0.0
2018-Feb-24 20:23N 09°27' W 079°56'0 0.0
2018-Feb-24 19:47N 09°27' W 079°57'0 0.0
2018-Feb-24 19:29N 09°27' W 079°57'0 0.0
2018-Feb-24 18:59N 09°27' W 079°56'0 0.1
2018-Feb-24 18:29N 09°27' W 079°56'0 0.1
2018-Feb-24 17:59N 09°27' W 079°56'0 0.0
2018-Feb-24 17:23N 09°27' W 079°56'0 0.2
2018-Feb-24 16:59N 09°27' W 079°57'0 0.3
2018-Feb-24 16:30N 09°27' W 079°56'4 8.4
2018-Feb-24 16:00N 09°31' W 079°54'815.1
2018-Feb-24 15:30N 09°37' W 079°51'  
2018-Feb-20 10:42N 38°44' W 074°59'210.8
2018-Feb-20 10:30N 38°45' W 075°01'610.9
2018-Feb-20 10:00N 38°50' W 075°04'1115.9
2018-Feb-20 09:18N 39°01' W 075°09'516.8
2018-Feb-20 09:00N 39°05' W 075°11'816.6
2018-Feb-20 08:31N 39°12' W 075°17'714.7
2018-Feb-20 08:00N 39°18' W 075°23'714.9
2018-Feb-20 07:30N 39°24' W 075°29'612.7
2018-Feb-20 07:01N 39°29' W 075°34'611.0
2018-Feb-20 06:30N 39°34' W 075°33'5 9.5
2018-Feb-20 06:00N 39°39' W 075°33'4 8.3
2018-Feb-20 05:30N 39°43' W 075°31'0 0.2
2018-Feb-20 04:58N 39°43' W 075°31'0 0.0
2018-Feb-20 04:28N 39°43' W 075°31'0 0.0
2018-Feb-20 03:58N 39°43' W 075°31'0 0.0
2018-Feb-20 03:28N 39°43' W 075°31'0 0.0
2018-Feb-20 02:58N 39°43' W 075°31'0 0.0
2018-Feb-20 02:28N 39°43' W 075°31'0 0.0
2018-Feb-20 01:58N 39°43' W 075°31'0 0.0
2018-Feb-20 01:28N 39°43' W 075°31'0 0.0
2018-Feb-20 00:58N 39°43' W 075°31'0 0.0
2018-Feb-20 00:28N 39°43' W 075°31'0 0.0
2018-Feb-19 23:58N 39°43' W 075°31'0 0.0
2018-Feb-19 23:28N 39°43' W 075°31'0 0.8
2018-Feb-19 23:01N 39°43' W 075°31'0 0.8
2018-Feb-19 22:29N 39°43' W 075°31'0 0.0
2018-Feb-19 21:59N 39°43' W 075°31'0 0.0
2018-Feb-19 21:29N 39°43' W 075°31'0 0.0
2018-Feb-19 20:59N 39°43' W 075°31'0 0.0
2018-Feb-19 20:29N 39°43' W 075°31'0 0.0
2018-Feb-19 19:59N 39°43' W 075°31'0 0.0
2018-Feb-19 19:29N 39°43' W 075°31'0 0.0
2018-Feb-19 18:59N 39°43' W 075°31'0 0.0
2018-Feb-19 18:29N 39°43' W 075°31'0 0.0
2018-Feb-19 17:59N 39°43' W 075°31'0 0.0
2018-Feb-19 17:29N 39°43' W 075°31'0 0.0
2018-Feb-19 16:59N 39°43' W 075°31'0 0.0
2018-Feb-19 16:29N 39°43' W 075°31'0 0.0
2018-Feb-19 15:56N 39°43' W 075°31'0 0.0
2018-Feb-19 15:29N 39°43' W 075°31'0 0.0
2018-Feb-19 14:59N 39°43' W 075°31'0 0.0
2018-Feb-19 14:29N 39°43' W 075°31'0 0.0
2018-Feb-19 13:59N 39°43' W 075°31'0 0.0
2018-Feb-19 13:29N 39°43' W 075°31'0 0.0
2018-Feb-19 12:59N 39°43' W 075°31'0 0.0
2018-Feb-19 12:29N 39°43' W 075°31'0 0.0
2018-Feb-19 11:59N 39°43' W 075°31'1 2.7
2018-Feb-19 11:31N 39°41' W 075°31'510.2
2018-Feb-19 11:00N 39°37' W 075°35'612.2
2018-Feb-19 10:31N 39°31' W 075°33'612.0
2018-Feb-19 10:00N 39°25' W 075°31'613.2
2018-Feb-19 09:30N 39°20' W 075°25'713.3
2018-Feb-19 09:00N 39°15' W 075°20'713.5
2018-Feb-19 08:30N 39°10' W 075°15'713.6
2018-Feb-19 08:00N 39°04' W 075°11'713.3
2018-Feb-19 07:30N 38°58' W 075°07'14 9.9
2018-Feb-19 06:04N 38°45' W 074°58'  
2018-Feb-16 18:18N 25°47' W 079°26'621.4
2018-Feb-16 18:00N 25°41' W 079°27'206 7.5
2018-Feb-15 14:22N 27°41' W 082°34'513.5
2018-Feb-15 14:01N 27°45' W 082°31'611.3
2018-Feb-15 13:30N 27°50' W 082°27'5 9.4
2018-Feb-15 13:01N 27°54' W 082°26'0 0.9
2018-Feb-15 12:30N 27°55' W 082°26'0 0.0
2018-Feb-15 12:00N 27°55' W 082°26'0 0.0
2018-Feb-15 11:30N 27°55' W 082°26'0 0.0
2018-Feb-15 11:00N 27°55' W 082°26'0 0.0
2018-Feb-15 10:31N 27°55' W 082°26'0 0.0
2018-Feb-15 10:00N 27°55' W 082°26'0 0.0
2018-Feb-15 09:30N 27°55' W 082°26'0 0.0
2018-Feb-15 09:00N 27°55' W 082°26'0 0.0
2018-Feb-15 08:30N 27°55' W 082°26'0 0.0
2018-Feb-15 07:59N 27°55' W 082°26'0 0.0
2018-Feb-15 07:30N 27°55' W 082°26'0 0.0
2018-Feb-15 07:00N 27°55' W 082°26'0 0.0
2018-Feb-15 06:30N 27°55' W 082°26'0 0.0
2018-Feb-15 06:00N 27°55' W 082°26'0 0.0
2018-Feb-15 05:31N 27°55' W 082°26'0 0.0
2018-Feb-15 05:00N 27°55' W 082°26'0 0.0
2018-Feb-15 04:30N 27°55' W 082°26'0 0.0
2018-Feb-15 04:00N 27°55' W 082°26'0 0.0
2018-Feb-15 03:30N 27°55' W 082°26'0 0.0
2018-Feb-15 03:00N 27°55' W 082°26'0 0.0
2018-Feb-15 02:31N 27°55' W 082°26'0 0.0
2018-Feb-15 02:00N 27°55' W 082°26'0 0.0
2018-Feb-15 01:30N 27°55' W 082°26'0 0.0
2018-Feb-15 00:59N 27°55' W 082°26'0 0.0
2018-Feb-15 00:30N 27°55' W 082°26'  
Track history (hours):
 
Tides and Currents Weather Stations Pressure Air Temp Water Temp Dewpoint Dewpoint Depression Visibility Wind Speed Wind Dir Waves Ship Positions

Wild Lotus

Last reported at 2018-Feb-25 00:29 UTC. Time now 2018-Feb-25 02:18 UTC.
Position N 09°27' W 079°56'.

; draft 5.6 m.

Type: Ship. MMSI: 352408000.

Date/timePositionNaut miles runAvg speedWind from/ knotsBaromVisibWave heightAir tempDewpointWater temp
2018-Feb-25 00:29N 09°27' W 079°56'0 0.1
2018-Feb-24 23:59N 09°27' W 079°56'0 0.0
2018-Feb-24 22:53N 09°27' W 079°56'0 0.0
2018-Feb-24 22:17N 09°27' W 079°56'0 0.0
2018-Feb-24 21:20N 09°27' W 079°56'0 0.0
2018-Feb-24 20:56N 09°27' W 079°56'0 0.0
2018-Feb-24 20:23N 09°27' W 079°56'0 0.0
2018-Feb-24 19:47N 09°27' W 079°57'0 0.0
2018-Feb-24 19:29N 09°27' W 079°57'0 0.0
2018-Feb-24 18:59N 09°27' W 079°56'0 0.1
2018-Feb-24 18:29N 09°27' W 079°56'0 0.1
2018-Feb-24 17:59N 09°27' W 079°56'0 0.0
2018-Feb-24 17:23N 09°27' W 079°56'0 0.2
2018-Feb-24 16:59N 09°27' W 079°57'0 0.3
2018-Feb-24 16:30N 09°27' W 079°56'4 8.4
2018-Feb-24 16:00N 09°31' W 079°54'815.1
2018-Feb-24 15:30N 09°37' W 079°51'  
2018-Feb-20 10:42N 38°44' W 074°59'210.8
2018-Feb-20 10:30N 38°45' W 075°01'610.9
2018-Feb-20 10:00N 38°50' W 075°04'1115.9
2018-Feb-20 09:18N 39°01' W 075°09'516.8
2018-Feb-20 09:00N 39°05' W 075°11'816.6
2018-Feb-20 08:31N 39°12' W 075°17'714.7
2018-Feb-20 08:00N 39°18' W 075°23'714.9
2018-Feb-20 07:30N 39°24' W 075°29'612.7
2018-Feb-20 07:01N 39°29' W 075°34'611.0
2018-Feb-20 06:30N 39°34' W 075°33'5 9.5
2018-Feb-20 06:00N 39°39' W 075°33'4 8.3
2018-Feb-20 05:30N 39°43' W 075°31'0 0.2
2018-Feb-20 04:58N 39°43' W 075°31'0 0.0
2018-Feb-20 04:28N 39°43' W 075°31'0 0.0
2018-Feb-20 03:58N 39°43' W 075°31'0 0.0
2018-Feb-20 03:28N 39°43' W 075°31'0 0.0
2018-Feb-20 02:58N 39°43' W 075°31'0 0.0
2018-Feb-20 02:28N 39°43' W 075°31'0 0.0
2018-Feb-20 01:58N 39°43' W 075°31'0 0.0
2018-Feb-20 01:28N 39°43' W 075°31'0 0.0
2018-Feb-20 00:58N 39°43' W 075°31'0 0.0
2018-Feb-20 00:28N 39°43' W 075°31'0 0.0
2018-Feb-19 23:58N 39°43' W 075°31'0 0.0
2018-Feb-19 23:28N 39°43' W 075°31'0 0.8
2018-Feb-19 23:01N 39°43' W 075°31'0 0.8
2018-Feb-19 22:29N 39°43' W 075°31'0 0.0
2018-Feb-19 21:59N 39°43' W 075°31'0 0.0
2018-Feb-19 21:29N 39°43' W 075°31'0 0.0
2018-Feb-19 20:59N 39°43' W 075°31'0 0.0
2018-Feb-19 20:29N 39°43' W 075°31'0 0.0
2018-Feb-19 19:59N 39°43' W 075°31'0 0.0
2018-Feb-19 19:29N 39°43' W 075°31'0 0.0
2018-Feb-19 18:59N 39°43' W 075°31'0 0.0
2018-Feb-19 18:29N 39°43' W 075°31'0 0.0
2018-Feb-19 17:59N 39°43' W 075°31'0 0.0
2018-Feb-19 17:29N 39°43' W 075°31'0 0.0
2018-Feb-19 16:59N 39°43' W 075°31'0 0.0
2018-Feb-19 16:29N 39°43' W 075°31'0 0.0
2018-Feb-19 15:56N 39°43' W 075°31'0 0.0
2018-Feb-19 15:29N 39°43' W 075°31'0 0.0
2018-Feb-19 14:59N 39°43' W 075°31'0 0.0
2018-Feb-19 14:29N 39°43' W 075°31'0 0.0
2018-Feb-19 13:59N 39°43' W 075°31'0 0.0
2018-Feb-19 13:29N 39°43' W 075°31'0 0.0
2018-Feb-19 12:59N 39°43' W 075°31'0 0.0
2018-Feb-19 12:29N 39°43' W 075°31'0 0.0
2018-Feb-19 11:59N 39°43' W 075°31'1 2.7
2018-Feb-19 11:31N 39°41' W 075°31'510.2
2018-Feb-19 11:00N 39°37' W 075°35'612.2
2018-Feb-19 10:31N 39°31' W 075°33'612.0
2018-Feb-19 10:00N 39°25' W 075°31'613.2
2018-Feb-19 09:30N 39°20' W 075°25'713.3
2018-Feb-19 09:00N 39°15' W 075°20'713.5
2018-Feb-19 08:30N 39°10' W 075°15'713.6
2018-Feb-19 08:00N 39°04' W 075°11'713.3
2018-Feb-19 07:30N 38°58' W 075°07'14 9.9
2018-Feb-19 06:04N 38°45' W 074°58'  
2018-Feb-16 18:18N 25°47' W 079°26'621.4
2018-Feb-16 18:00N 25°41' W 079°27'206 7.5
2018-Feb-15 14:22N 27°41' W 082°34'513.5
2018-Feb-15 14:01N 27°45' W 082°31'611.3
2018-Feb-15 13:30N 27°50' W 082°27'5 9.4
2018-Feb-15 13:01N 27°54' W 082°26'0 0.9
2018-Feb-15 12:30N 27°55' W 082°26'0 0.0
2018-Feb-15 12:00N 27°55' W 082°26'0 0.0
2018-Feb-15 11:30N 27°55' W 082°26'0 0.0
2018-Feb-15 11:00N 27°55' W 082°26'0 0.0
2018-Feb-15 10:31N 27°55' W 082°26'0 0.0
2018-Feb-15 10:00N 27°55' W 082°26'0 0.0
2018-Feb-15 09:30N 27°55' W 082°26'0 0.0
2018-Feb-15 09:00N 27°55' W 082°26'0 0.0
2018-Feb-15 08:30N 27°55' W 082°26'0 0.0
2018-Feb-15 07:59N 27°55' W 082°26'0 0.0
2018-Feb-15 07:30N 27°55' W 082°26'0 0.0
2018-Feb-15 07:00N 27°55' W 082°26'0 0.0
2018-Feb-15 06:30N 27°55' W 082°26'0 0.0
2018-Feb-15 06:00N 27°55' W 082°26'0 0.0
2018-Feb-15 05:31N 27°55' W 082°26'0 0.0
2018-Feb-15 05:00N 27°55' W 082°26'0 0.0
2018-Feb-15 04:30N 27°55' W 082°26'0 0.0
2018-Feb-15 04:00N 27°55' W 082°26'0 0.0
2018-Feb-15 03:30N 27°55' W 082°26'0 0.0
2018-Feb-15 03:00N 27°55' W 082°26'0 0.0
2018-Feb-15 02:31N 27°55' W 082°26'0 0.0
2018-Feb-15 02:00N 27°55' W 082°26'0 0.0
2018-Feb-15 01:30N 27°55' W 082°26'0 0.0
2018-Feb-15 00:59N 27°55' W 082°26'0 0.0
2018-Feb-15 00:30N 27°55' W 082°26'  

Dump ship's entire track history